Terminal Aerodrome Forecast
Issued by NWS

Home | Current Version | Previous Version | Text Only | Print | Product List | Glossary On
Versions: 1 2 3 4 5 6 7 8 9 10 11 12 13 14 15 16 17 18 19
023
FTUS41 KBTV 262327
TAFMSS
TAF
KMSS 262327Z 2700/2724 05007KT P6SM BKN100
     FM271200 07007KT P6SM VCSH BKN050
     FM272100 12006KT P6SM VCSH OVC040=

USA.gov is the U.S. government's official web portal to all federal, state and local government web resources and services.